createdAt,value
2018-11-22T07:16:36.995Z,1013.85
2018-11-22T07:17:12.099Z,1013.82
2018-11-22T07:17:47.581Z,1013.85
2018-11-22T07:18:22.795Z,1013.84
2018-11-22T07:18:58.189Z,1013.84
2018-11-22T07:19:33.337Z,1013.86
2018-11-22T07:20:08.557Z,1013.83
2018-11-22T07:20:43.718Z,1013.89
2018-11-22T07:21:19.100Z,1013.83
2018-11-22T07:21:54.270Z,1013.87
2018-11-22T07:22:29.759Z,1013.88
2018-11-22T07:23:05.123Z,1013.81
2018-11-22T07:23:40.334Z,1013.83
2018-11-22T07:24:15.814Z,1013.87
2018-11-22T07:24:51.394Z,1013.89
2018-11-22T07:25:26.555Z,1013.87
2018-11-22T07:26:02.051Z,1013.89
2018-11-22T07:26:37.424Z,1013.84
2018-11-22T07:27:12.814Z,1013.85
2018-11-22T07:27:48.179Z,1013.86
2018-11-22T07:28:23.876Z,1013.86
2018-11-22T07:28:59.397Z,1013.89
2018-11-22T07:29:34.712Z,1013.88
2018-11-22T07:30:09.972Z,1013.92
2018-11-22T07:30:45.276Z,1013.89
2018-11-22T07:31:20.651Z,1013.91
2018-11-22T07:31:55.943Z,1013.89
2018-11-22T07:32:31.231Z,1013.90
2018-11-22T07:33:06.823Z,1013.90
2018-11-22T07:33:42.089Z,1013.89
2018-11-22T07:34:17.505Z,1013.88
2018-11-22T07:34:53.006Z,1013.89
2018-11-22T07:35:28.317Z,1013.92
2018-11-22T07:36:03.810Z,1013.87
2018-11-22T07:36:39.303Z,1013.90
2018-11-22T07:37:14.518Z,1013.86
2018-11-22T07:37:49.822Z,1013.85
2018-11-22T07:38:25.424Z,1013.85
2018-11-22T07:39:00.900Z,1013.88
2018-11-22T07:39:36.619Z,1013.86
2018-11-22T07:40:11.805Z,1013.93
2018-11-22T07:40:46.995Z,1013.88
2018-11-22T07:41:22.622Z,1013.85
2018-11-22T07:41:57.692Z,1013.90
2018-11-22T07:42:33.186Z,1013.86
2018-11-22T07:43:08.352Z,1013.86
2018-11-22T07:43:43.857Z,1013.88
2018-11-22T07:44:19.131Z,1013.90
2018-11-22T07:44:54.663Z,1013.86
2018-11-22T07:45:29.839Z,1013.87
2018-11-22T07:46:05.137Z,1013.86
2018-11-22T07:46:40.406Z,1013.90
2018-11-22T07:47:15.703Z,1013.87
2018-11-22T07:47:51.219Z,1013.85
2018-11-22T07:48:26.502Z,1013.84
2018-11-22T07:49:01.987Z,1013.90
2018-11-22T07:49:37.278Z,1013.85
2018-11-22T07:50:13.007Z,1013.83
2018-11-22T07:50:48.384Z,1013.86
2018-11-22T07:51:23.623Z,1013.87
2018-11-22T07:51:58.699Z,1013.83
2018-11-22T07:52:33.905Z,1013.88
2018-11-22T07:53:09.102Z,1013.82
2018-11-22T07:53:44.779Z,1013.81
2018-11-22T07:54:19.972Z,1013.86
2018-11-22T07:54:55.157Z,1013.87
2018-11-22T07:55:30.772Z,1013.84
2018-11-22T07:56:05.957Z,1013.81
2018-11-22T07:56:41.379Z,1013.79
2018-11-22T07:57:16.756Z,1013.82
2018-11-22T07:57:52.167Z,1013.79
2018-11-22T07:58:27.266Z,1013.83
2018-11-22T07:59:02.944Z,1013.84
2018-11-22T07:59:38.546Z,1013.80
2018-11-22T08:00:13.836Z,1013.80
2018-11-22T08:00:49.355Z,1013.85
2018-11-22T08:01:24.529Z,1013.78
2018-11-22T08:01:59.935Z,1013.79
2018-11-22T08:02:35.320Z,1013.76
2018-11-22T08:03:10.502Z,1013.81
2018-11-22T08:03:45.962Z,1013.76
2018-11-22T08:04:21.560Z,1013.76
2018-11-22T08:04:57.044Z,1013.76
2018-11-22T08:05:32.535Z,1013.77
2018-11-22T08:06:08.147Z,1013.75
2018-11-22T08:06:43.334Z,1013.77
2018-11-22T08:07:18.635Z,1013.76
2018-11-22T08:07:53.798Z,1013.80
2018-11-22T08:08:29.114Z,1013.71
2018-11-22T08:09:04.390Z,1013.80
2018-11-22T08:09:39.785Z,1013.82
2018-11-22T08:10:14.892Z,1013.84
2018-11-22T08:10:50.211Z,1013.81
2018-11-22T08:11:25.509Z,1013.80
2018-11-22T08:12:00.970Z,1013.84
2018-11-22T08:12:36.520Z,1013.83
2018-11-22T08:13:11.871Z,1013.78
2018-11-22T08:13:47.192Z,1013.84
2018-11-22T08:14:22.378Z,1013.85
2018-11-22T08:14:57.671Z,1013.84
2018-11-22T08:15:32.942Z,1013.82
2018-11-22T08:16:08.365Z,1013.85
2018-11-22T08:16:43.676Z,1013.83
2018-11-22T08:17:18.935Z,1013.81
2018-11-22T08:17:54.334Z,1013.83
2018-11-22T08:18:29.721Z,1013.84
2018-11-22T08:19:05.116Z,1013.82
2018-11-22T08:19:40.797Z,1013.86
2018-11-22T08:20:16.193Z,1013.86
2018-11-22T08:20:51.700Z,1013.92
2018-11-22T08:21:27.127Z,1013.90
2018-11-22T08:22:02.529Z,1013.87
2018-11-22T08:22:37.812Z,1013.91
2018-11-22T08:23:12.913Z,1013.95
2018-11-22T08:23:48.292Z,1013.91
2018-11-22T08:24:23.614Z,1013.97
2018-11-22T08:24:59.099Z,1013.94
2018-11-22T08:25:34.631Z,1013.95
2018-11-22T08:26:10.121Z,1013.93
2018-11-22T08:26:45.443Z,1013.93
2018-11-22T08:27:20.682Z,1013.97
2018-11-22T08:27:55.852Z,1013.94
2018-11-22T08:28:31.166Z,1013.95
2018-11-22T08:29:06.344Z,1013.92
2018-11-22T08:29:41.859Z,1013.94
2018-11-22T08:30:17.236Z,1013.89
2018-11-22T08:30:52.456Z,1013.92
2018-11-22T08:31:27.733Z,1013.89
2018-11-22T08:32:02.959Z,1013.92
2018-11-22T08:32:38.030Z,1013.87
2018-11-22T08:33:13.324Z,1013.91
2018-11-22T08:33:48.628Z,1013.91
2018-11-22T08:34:23.915Z,1013.90
2018-11-22T08:34:59.507Z,1013.88
2018-11-22T08:35:34.819Z,1013.85
2018-11-22T08:36:10.316Z,1013.89
2018-11-22T08:36:46.108Z,1013.90
2018-11-22T08:37:21.447Z,1013.91
2018-11-22T08:37:56.535Z,1013.92
2018-11-22T08:38:31.929Z,1013.89
2018-11-22T08:39:07.101Z,1013.94
2018-11-22T08:39:42.688Z,1013.93
2018-11-22T08:40:18.084Z,1013.93
2018-11-22T08:40:53.374Z,1013.94
2018-11-22T08:41:28.969Z,1013.93
2018-11-22T08:42:04.653Z,1013.95
2018-11-22T08:42:40.287Z,1013.98
2018-11-22T08:43:15.656Z,1013.99
2018-11-22T08:43:50.952Z,1013.97
2018-11-22T08:44:26.451Z,1013.99
2018-11-22T08:45:02.045Z,1014.04
2018-11-22T08:45:37.329Z,1014.02
2018-11-22T08:46:12.701Z,1014.00
2018-11-22T08:46:47.993Z,1014.05
2018-11-22T08:47:23.178Z,1014.07
2018-11-22T08:47:58.826Z,1014.05
2018-11-22T08:48:34.301Z,1014.05
2018-11-22T08:49:09.806Z,1014.06
2018-11-22T08:49:44.993Z,1014.05
2018-11-22T08:50:20.300Z,1014.05
2018-11-22T08:50:55.571Z,1014.03
2018-11-22T08:51:30.992Z,1014.01
2018-11-22T08:52:06.595Z,1014.01
2018-11-22T08:52:42.079Z,1014.01
2018-11-22T08:53:17.609Z,1014.02
2018-11-22T08:53:52.893Z,1013.99
2018-11-22T08:54:28.491Z,1014.03
2018-11-22T08:55:03.858Z,1014.02
2018-11-22T08:55:38.954Z,1014.06
2018-11-22T08:56:14.142Z,1014.07
2018-11-22T08:56:49.728Z,1014.02
2018-11-22T08:57:25.029Z,1014.08
2018-11-22T08:58:00.509Z,1014.04
2018-11-22T08:58:35.835Z,1014.04
2018-11-22T08:59:11.112Z,1014.06
2018-11-22T08:59:46.420Z,1014.02
2018-11-22T09:00:21.612Z,1014.06
2018-11-22T09:00:57.203Z,1014.06
2018-11-22T09:01:32.772Z,1014.06
2018-11-22T09:02:07.872Z,1014.01
2018-11-22T09:02:45.454Z,1014.01
2018-11-22T09:03:18.741Z,1014.02
2018-11-22T09:03:54.213Z,1014.01
2018-11-22T09:04:50.695Z,1014.01
2018-11-22T09:05:25.899Z,1014.01
2018-11-22T09:06:01.394Z,1014.03
2018-11-22T09:06:36.902Z,1014.00
2018-11-22T09:07:12.169Z,1014.03
2018-11-22T09:07:47.597Z,1014.02
2018-11-22T09:08:23.098Z,1014.03
2018-11-22T09:08:58.708Z,1014.00
2018-11-22T09:09:33.929Z,1014.02
2018-11-22T09:10:09.405Z,1014.05
2018-11-22T09:10:45.023Z,1014.03
2018-11-22T09:11:20.302Z,1014.04
2018-11-22T09:11:55.607Z,1014.05
2018-11-22T09:12:30.884Z,1014.09
2018-11-22T09:13:06.199Z,1014.08
2018-11-22T09:13:41.786Z,1014.06
2018-11-22T09:14:17.211Z,1014.02
2018-11-22T09:14:52.835Z,1014.08
2018-11-22T09:15:31.340Z,1014.03
2018-11-22T09:16:03.606Z,1014.03
2018-11-22T09:16:38.779Z,1014.01
2018-11-22T09:17:14.091Z,1014.07
2018-11-22T09:17:49.373Z,1014.10
2018-11-22T09:18:25.084Z,1014.08
2018-11-22T09:19:00.267Z,1014.02
2018-11-22T09:19:35.698Z,1014.01
2018-11-22T09:20:11.201Z,1014.06
2018-11-22T09:20:46.583Z,1014.08
2018-11-22T09:21:22.089Z,1014.06
2018-11-22T09:21:57.461Z,1014.07
2018-11-22T09:22:32.894Z,1014.04
2018-11-22T09:23:08.556Z,1014.05
2018-11-22T09:23:43.949Z,1014.04
2018-11-22T09:24:24.130Z,1014.06
2018-11-22T09:24:54.884Z,1014.05
2018-11-22T09:25:29.982Z,1014.04
2018-11-22T09:26:05.594Z,1014.04
2018-11-22T09:26:40.861Z,1014.05
2018-11-22T09:27:16.064Z,1014.05
2018-11-22T09:27:51.357Z,1014.03
2018-11-22T09:28:27.392Z,1014.05
2018-11-22T09:29:01.740Z,1014.08
2018-11-22T09:29:39.555Z,1014.07
2018-11-22T09:30:12.777Z,1014.03
2018-11-22T09:30:47.875Z,1014.05
2018-11-22T09:31:23.348Z,1014.03
2018-11-22T09:31:58.754Z,1014.03
2018-11-22T09:32:34.084Z,1014.06
2018-11-22T09:33:09.363Z,1014.05
